createdAt,value
2018-09-17T00:02:03.343Z,12.6
2018-09-17T00:07:05.724Z,12.5
2018-09-17T00:12:08.160Z,12.4
2018-09-17T00:17:10.669Z,12.3
2018-09-17T00:22:13.070Z,12.3
2018-09-17T00:27:15.499Z,12.2
2018-09-17T00:32:17.953Z,12.2
2018-09-17T00:37:20.383Z,12.1
2018-09-17T00:42:22.807Z,12
2018-09-17T00:47:25.244Z,12
2018-09-17T00:52:27.700Z,11.9
2018-09-17T00:57:30.146Z,11.9
2018-09-17T01:02:32.624Z,11.8
2018-09-17T01:07:35.002Z,11.8
2018-09-17T01:12:37.463Z,11.8
2018-09-17T01:17:39.907Z,11.7
2018-09-17T01:22:42.360Z,11.6
2018-09-17T01:27:44.771Z,11.6
2018-09-17T01:32:47.222Z,11.6
2018-09-17T01:37:49.645Z,11.5
2018-09-17T01:42:52.125Z,11.4
2018-09-17T01:47:54.548Z,11.4
2018-09-17T01:52:57.029Z,11.3
2018-09-17T01:57:59.413Z,11.2
2018-09-17T02:03:01.865Z,11.2
2018-09-17T02:08:04.436Z,11.2
2018-09-17T02:13:06.737Z,11.1
2018-09-17T02:18:09.172Z,11
2018-09-17T02:23:11.621Z,11
2018-09-17T02:28:14.055Z,10.9
2018-09-17T02:33:16.508Z,10.9
2018-09-17T02:38:18.924Z,10.8
2018-09-17T02:43:21.710Z,10.8
2018-09-17T02:48:23.836Z,10.7
2018-09-17T02:53:26.387Z,10.6
2018-09-17T02:58:28.695Z,10.6
2018-09-17T03:03:31.144Z,10.5
2018-09-17T03:08:33.640Z,10.5
2018-09-17T03:13:36.073Z,10.5
2018-09-17T03:18:38.473Z,10.5
2018-09-17T03:23:40.907Z,10.5
2018-09-17T03:28:43.335Z,10.4
2018-09-17T03:33:45.776Z,10.4
2018-09-17T03:38:48.482Z,10.3
2018-09-17T03:43:50.652Z,10.3
2018-09-17T03:48:53.140Z,10.2
2018-09-17T03:53:55.575Z,10.2
2018-09-17T03:58:58.007Z,10.2
2018-09-17T04:04:00.432Z,10.2
2018-09-17T04:09:02.856Z,10.1
2018-09-17T04:14:05.306Z,10.1
2018-09-17T04:19:07.923Z,10
2018-09-17T04:24:10.280Z,10
2018-09-17T04:29:12.660Z,9.9
2018-09-17T04:34:15.197Z,9.9
2018-09-17T04:39:17.492Z,9.9
2018-09-17T04:44:19.949Z,9.9
2018-09-17T04:49:22.528Z,9.9
2018-09-17T04:54:24.805Z,9.9
2018-09-17T04:59:27.273Z,9.8
2018-09-17T05:04:29.703Z,9.8
2018-09-17T05:09:32.257Z,9.9
2018-09-17T05:14:34.577Z,9.9
2018-09-17T05:19:37.082Z,9.9
2018-09-17T05:24:39.462Z,9.9
2018-09-17T05:29:41.898Z,9.9
2018-09-17T05:34:44.353Z,10
2018-09-17T05:39:46.779Z,10.1
2018-09-17T05:44:49.310Z,10.1
2018-09-17T05:49:51.665Z,10.1
2018-09-17T05:54:54.095Z,10.1
2018-09-17T05:59:56.549Z,10.1
2018-09-17T06:04:58.995Z,10.2
2018-09-17T06:10:01.482Z,10.3
2018-09-17T06:15:03.889Z,10.5
2018-09-17T06:20:06.294Z,10.6
2018-09-17T06:25:09.072Z,10.8
2018-09-17T06:30:11.443Z,10.9
2018-09-17T06:35:13.605Z,11
2018-09-17T06:40:16.067Z,11.1
2018-09-17T06:45:18.493Z,11.3
2018-09-17T06:50:21.047Z,11.4
2018-09-17T06:55:23.377Z,11.6
2018-09-17T07:00:25.864Z,11.8
2018-09-17T07:05:28.262Z,11.9
2018-09-17T07:10:30.710Z,12
2018-09-17T07:15:33.162Z,12.2
2018-09-17T07:20:35.761Z,12.3
2018-09-17T07:25:38.017Z,12.5
2018-09-17T07:30:40.456Z,12.6
2018-09-17T07:35:42.898Z,12.8
2018-09-17T07:40:45.499Z,12.9
2018-09-17T07:45:47.782Z,13
2018-09-17T07:50:50.254Z,13.2
2018-09-17T07:55:52.722Z,13.4
2018-09-17T08:00:55.128Z,13.5
2018-09-17T08:05:57.570Z,13.6
2018-09-17T08:11:00.002Z,13.8
2018-09-17T08:16:02.461Z,14
2018-09-17T08:21:04.865Z,14.1
2018-09-17T08:26:07.410Z,14.3
2018-09-17T08:31:09.739Z,14.5
2018-09-17T08:36:12.330Z,14.7
2018-09-17T08:41:14.677Z,14.8
2018-09-17T08:46:17.074Z,15
2018-09-17T08:51:19.540Z,15.2
2018-09-17T08:56:21.952Z,15.3
2018-09-17T09:01:24.462Z,15.5
2018-09-17T09:06:26.818Z,15.6
2018-09-17T09:11:29.305Z,15.7
2018-09-17T09:16:31.712Z,15.9
2018-09-17T09:21:34.156Z,16.1
2018-09-17T09:26:36.579Z,16.3
2018-09-17T09:31:39.084Z,16.6
2018-09-17T09:36:41.524Z,16.9
2018-09-17T09:41:43.934Z,17.2
2018-09-17T09:46:46.341Z,17.5
2018-09-17T09:51:49.032Z,17.6
2018-09-17T09:56:51.796Z,17.8
2018-09-17T10:01:53.677Z,18
2018-09-17T10:06:56.111Z,18.3
2018-09-17T10:11:58.639Z,18.6
2018-09-17T10:17:01.000Z,18.8
2018-09-17T10:22:03.734Z,19.1
2018-09-17T10:27:05.875Z,19.3
2018-09-17T10:32:08.391Z,19.6
2018-09-17T10:37:10.755Z,19.9
2018-09-17T10:42:13.228Z,20.2
2018-09-17T10:47:15.651Z,20.5
2018-09-17T10:52:18.232Z,20.8
2018-09-17T10:57:20.609Z,21.2
2018-09-17T11:02:22.987Z,21.5
2018-09-17T11:07:25.486Z,21.6
2018-09-17T11:12:27.854Z,21.8
2018-09-17T11:17:30.402Z,22
2018-09-17T11:22:32.757Z,22.2
2018-09-17T11:27:35.183Z,22.4
2018-09-17T11:32:37.663Z,22.7
2018-09-17T11:37:40.184Z,23.1
2018-09-17T11:42:42.489Z,23.4
2018-09-17T11:47:44.952Z,23.5
2018-09-17T11:52:47.496Z,23.4
2018-09-17T11:57:49.841Z,23.7
2018-09-17T12:02:52.302Z,24.2
2018-09-17T12:07:54.872Z,24.9
2018-09-17T12:12:57.295Z,25.6
2018-09-17T12:17:59.605Z,26.5
2018-09-17T12:23:02.423Z,26.9
2018-09-17T12:28:04.487Z,26.4
2018-09-17T12:33:06.940Z,26.3
2018-09-17T12:38:09.542Z,27
2018-09-17T12:43:11.918Z,28
2018-09-17T12:48:14.240Z,29.4
2018-09-17T12:53:16.702Z,30.4
2018-09-17T12:58:19.163Z,31
2018-09-17T13:03:21.659Z,31.2
2018-09-17T13:08:24.025Z,31
2018-09-17T13:13:26.873Z,30.1
2018-09-17T13:18:28.912Z,29.9
2018-09-17T13:23:31.336Z,31.4
2018-09-17T13:28:33.776Z,32.8
2018-09-17T13:33:36.375Z,34.1
2018-09-17T13:38:38.682Z,34.4
2018-09-17T13:43:41.151Z,33.1
2018-09-17T13:48:43.611Z,31.1
2018-09-17T13:53:46.011Z,30
2018-09-17T13:58:48.448Z,32
2018-09-17T14:03:50.906Z,33.3
2018-09-17T14:08:53.342Z,33.7
2018-09-17T14:13:55.866Z,34
2018-09-17T14:18:58.223Z,34.4
2018-09-17T14:24:00.688Z,32.8
2018-09-17T14:29:03.141Z,34
2018-09-17T14:34:05.571Z,34.8
2018-09-17T14:39:07.975Z,35.6
2018-09-17T14:44:10.574Z,36.2
2018-09-17T14:49:12.958Z,36.5
2018-09-17T14:54:15.358Z,36
2018-09-17T14:59:17.803Z,34.6
2018-09-17T15:04:20.344Z,33.2
2018-09-17T15:09:22.626Z,33.5
2018-09-17T15:14:25.242Z,34.5
2018-09-17T15:19:27.546Z,35.6
2018-09-17T15:24:30.115Z,36.5
2018-09-17T15:29:32.447Z,36.5
2018-09-17T15:34:34.889Z,35.8
2018-09-17T15:39:37.294Z,35
2018-09-17T15:44:39.748Z,34.2
2018-09-17T15:49:42.228Z,33.3
2018-09-17T15:54:44.635Z,32.3
2018-09-17T15:59:47.057Z,31.3
2018-09-17T16:04:49.568Z,30.3
2018-09-17T16:09:51.980Z,29.4
2018-09-17T16:14:54.379Z,28.4
2018-09-17T16:19:56.943Z,27.6
2018-09-17T16:24:59.361Z,26.6
2018-09-17T16:30:06.734Z,25.7
2018-09-17T16:35:04.263Z,25.1
2018-09-17T16:40:06.616Z,24.6
2018-09-17T16:45:09.163Z,24.2
2018-09-17T16:50:11.482Z,23.8
2018-09-17T16:55:13.929Z,23.4
2018-09-17T17:00:16.387Z,23
2018-09-17T17:05:19.005Z,22.7
2018-09-17T17:10:21.405Z,22.3
2018-09-17T17:15:23.702Z,21.9
2018-09-17T17:20:26.148Z,21.7
2018-09-17T17:25:28.621Z,21.4
2018-09-17T17:30:31.039Z,21.2
2018-09-17T17:35:33.463Z,20.9
2018-09-17T17:40:36.122Z,20.7
2018-09-17T17:45:38.326Z,20.5
2018-09-17T17:50:40.779Z,20.3
2018-09-17T17:55:43.271Z,20.1
2018-09-17T18:00:45.672Z,19.9
2018-09-17T18:05:48.089Z,19.7
2018-09-17T18:10:50.598Z,19.6
2018-09-17T18:15:53.077Z,19.5
2018-09-17T18:20:55.482Z,19.4
2018-09-17T18:25:58.000Z,19.3
2018-09-17T18:31:00.295Z,19.2
2018-09-17T18:36:02.753Z,19.1
2018-09-17T18:41:05.197Z,19
2018-09-17T18:46:07.634Z,18.9
2018-09-17T18:51:10.123Z,18.9
2018-09-17T18:56:12.514Z,18.8
2018-09-17T19:01:15.022Z,18.7
2018-09-17T19:06:17.503Z,18.5
2018-09-17T19:11:19.982Z,18.3
2018-09-17T19:16:22.331Z,18.3
2018-09-17T19:21:24.752Z,18.5
2018-09-17T19:26:27.165Z,18.6
2018-09-17T19:31:29.587Z,18.6
2018-09-17T19:36:32.023Z,18.4
2018-09-17T19:41:34.508Z,18.2
2018-09-17T19:46:36.902Z,18
2018-09-17T19:51:39.360Z,17.8
2018-09-17T19:56:41.798Z,17.6
2018-09-17T20:01:44.243Z,17.4
2018-09-17T20:06:46.677Z,17.3
2018-09-17T20:11:49.117Z,17.2
2018-09-17T20:16:51.565Z,17.1
2018-09-17T20:21:53.990Z,17.2
2018-09-17T20:26:56.451Z,17.3
2018-09-17T20:31:58.922Z,17.4
2018-09-17T20:37:01.349Z,17.4
2018-09-17T20:42:04.080Z,17.5
2018-09-17T20:47:06.737Z,17.6
2018-09-17T20:52:08.659Z,17.6
2018-09-17T20:57:11.088Z,17.6
2018-09-17T21:02:13.523Z,17.6
2018-09-17T21:07:16.050Z,17.7
2018-09-17T21:12:18.680Z,17.7
2018-09-17T21:17:20.851Z,17.6
2018-09-17T21:22:23.295Z,17.6
2018-09-17T21:27:25.742Z,17.6
2018-09-17T21:32:28.168Z,17.6
2018-09-17T21:37:30.630Z,17.5
2018-09-17T21:42:33.096Z,17.5
2018-09-17T21:47:35.506Z,17.4
2018-09-17T21:52:37.970Z,17.3
2018-09-17T21:57:40.380Z,17.3
2018-09-17T22:02:42.816Z,17.3
2018-09-17T22:07:45.252Z,17.3
2018-09-17T22:12:47.708Z,17.2
2018-09-17T22:17:50.284Z,17.2
2018-09-17T22:22:52.589Z,17.2
2018-09-17T22:27:55.037Z,17.1
2018-09-17T22:32:57.458Z,17
2018-09-17T22:37:59.908Z,16.9
2018-09-17T22:43:02.425Z,16.9
2018-09-17T22:48:04.779Z,16.8
2018-09-17T22:53:07.300Z,16.7
2018-09-17T22:58:09.680Z,16.7
2018-09-17T23:03:12.099Z,16.6
2018-09-17T23:08:14.621Z,16.5
2018-09-17T23:13:16.981Z,16.3
2018-09-17T23:18:19.420Z,16.2
2018-09-17T23:23:22.444Z,16.1
2018-09-17T23:28:24.312Z,15.9
2018-09-17T23:33:26.863Z,15.7
2018-09-17T23:38:29.201Z,15.6
2018-09-17T23:43:32.010Z,15.4
2018-09-17T23:48:34.068Z,15.3
2018-09-17T23:53:36.499Z,15.2
2018-09-17T23:58:38.962Z,15.1
